sensor_id;sensor_type;location;lat;lon;timestamp;temperature;humidity
782;DHT22;374;52.568;13.402;2023-12-22T00:00:49;6.80;99.90
782;DHT22;374;52.568;13.402;2023-12-22T00:03:14;6.80;99.90
782;DHT22;374;52.568;13.402;2023-12-22T00:05:40;6.80;99.90
782;DHT22;374;52.568;13.402;2023-12-22T00:08:06;6.80;99.90
782;DHT22;374;52.568;13.402;2023-12-22T00:10:31;6.70;99.90
782;DHT22;374;52.568;13.402;2023-12-22T00:12:59;6.70;99.90
782;DHT22;374;52.568;13.402;2023-12-22T00:15:25;6.60;99.90
782;DHT22;374;52.568;13.402;2023-12-22T00:17:50;6.70;99.90
782;DHT22;374;52.568;13.402;2023-12-22T00:20:16;6.80;99.90
782;DHT22;374;52.568;13.402;2023-12-22T00:22:41;6.90;99.90
782;DHT22;374;52.568;13.402;2023-12-22T00:25:07;6.90;99.90
782;DHT22;374;52.568;13.402;2023-12-22T00:27:34;6.80;99.90
782;DHT22;374;52.568;13.402;2023-12-22T00:30:00;6.80;99.90
782;DHT22;374;52.568;13.402;2023-12-22T00:32:25;6.60;99.90
782;DHT22;374;52.568;13.402;2023-12-22T00:34:51;6.60;99.90
782;DHT22;374;52.568;13.402;2023-12-22T00:37:17;6.60;99.90
782;DHT22;374;52.568;13.402;2023-12-22T00:39:42;6.50;99.90
782;DHT22;374;52.568;13.402;2023-12-22T00:42:08;6.40;99.90
782;DHT22;374;52.568;13.402;2023-12-22T00:44:33;6.50;99.90
782;DHT22;374;52.568;13.402;2023-12-22T00:47:00;6.50;99.90
782;DHT22;374;52.568;13.402;2023-12-22T00:49:25;6.50;99.90
782;DHT22;374;52.568;13.402;2023-12-22T00:51:51;6.50;99.90
782;DHT22;374;52.568;13.402;2023-12-22T00:54:16;6.40;99.90
782;DHT22;374;52.568;13.402;2023-12-22T00:56:42;6.50;99.90
782;DHT22;374;52.568;13.402;2023-12-22T00:59:07;6.50;99.90
782;DHT22;374;52.568;13.402;2023-12-22T01:01:33;6.60;99.90
782;DHT22;374;52.568;13.402;2023-12-22T01:03:58;6.50;99.90
782;DHT22;374;52.568;13.402;2023-12-22T01:06:23;6.40;99.90
782;DHT22;374;52.568;13.402;2023-12-22T01:08:49;6.40;99.90
782;DHT22;374;52.568;13.402;2023-12-22T01:11:17;6.40;99.90
782;DHT22;374;52.568;13.402;2023-12-22T01:13:43;6.40;99.90
782;DHT22;374;52.568;13.402;2023-12-22T01:16:09;6.50;99.90
782;DHT22;374;52.568;13.402;2023-12-22T01:18:37;6.40;99.90
782;DHT22;374;52.568;13.402;2023-12-22T01:21:05;6.40;99.90
782;DHT22;374;52.568;13.402;2023-12-22T01:23:31;6.40;99.90
782;DHT22;374;52.568;13.402;2023-12-22T01:25:56;6.50;99.90
782;DHT22;374;52.568;13.402;2023-12-22T01:28:22;6.40;99.90
782;DHT22;374;52.568;13.402;2023-12-22T01:30:47;6.40;99.90
782;DHT22;374;52.568;13.402;2023-12-22T01:33:13;6.50;99.90
782;DHT22;374;52.568;13.402;2023-12-22T01:35:38;6.50;99.90
782;DHT22;374;52.568;13.402;2023-12-22T01:38:03;6.50;99.90
782;DHT22;374;52.568;13.402;2023-12-22T01:40:29;6.40;99.90
782;DHT22;374;52.568;13.402;2023-12-22T01:42:54;6.40;99.90
782;DHT22;374;52.568;13.402;2023-12-22T01:45:20;6.40;99.90
782;DHT22;374;52.568;13.402;2023-12-22T01:47:46;6.40;99.90
782;DHT22;374;52.568;13.402;2023-12-22T01:50:12;6.40;99.90
782;DHT22;374;52.568;13.402;2023-12-22T01:52:44;6.40;99.90
782;DHT22;374;52.568;13.402;2023-12-22T01:55:11;6.40;99.90
782;DHT22;374;52.568;13.402;2023-12-22T01:57:38;6.50;99.90
782;DHT22;374;52.568;13.402;2023-12-22T02:00:15;6.40;99.90
782;DHT22;374;52.568;13.402;2023-12-22T02:02:41;6.40;99.90
782;DHT22;374;52.568;13.402;2023-12-22T02:05:10;6.40;99.90
782;DHT22;374;52.568;13.402;2023-12-22T02:07:41;6.30;99.90
782;DHT22;374;52.568;13.402;2023-12-22T02:10:10;6.30;99.90
782;DHT22;374;52.568;13.402;2023-12-22T02:12:36;6.30;99.90
782;DHT22;374;52.568;13.402;2023-12-22T02:15:02;6.30;99.90
782;DHT22;374;52.568;13.402;2023-12-22T02:17:42;6.40;99.90
782;DHT22;374;52.568;13.402;2023-12-22T02:20:10;6.40;99.90
782;DHT22;374;52.568;13.402;2023-12-22T02:22:35;6.30;99.90
782;DHT22;374;52.568;13.402;2023-12-22T02:25:01;6.30;99.90
782;DHT22;374;52.568;13.402;2023-12-22T02:27:38;6.20;99.90
782;DHT22;374;52.568;13.402;2023-12-22T02:30:15;6.30;99.90
782;DHT22;374;52.568;13.402;2023-12-22T02:32:49;6.30;99.90
782;DHT22;374;52.568;13.402;2023-12-22T02:35:18;6.20;99.90
782;DHT22;374;52.568;13.402;2023-12-22T02:37:46;6.20;99.90
782;DHT22;374;52.568;13.402;2023-12-22T02:40:14;6.20;99.90
782;DHT22;374;52.568;13.402;2023-12-22T02:42:40;6.20;99.90
782;DHT22;374;52.568;13.402;2023-12-22T02:45:06;6.20;99.90
782;DHT22;374;52.568;13.402;2023-12-22T02:47:31;6.20;99.90
782;DHT22;374;52.568;13.402;2023-12-22T02:50:00;6.30;99.90
782;DHT22;374;52.568;13.402;2023-12-22T02:52:25;6.20;99.90
782;DHT22;374;52.568;13.402;2023-12-22T02:54:51;6.20;99.90
782;DHT22;374;52.568;13.402;2023-12-22T02:57:16;6.10;99.90
782;DHT22;374;52.568;13.402;2023-12-22T02:59:42;6.10;99.90
782;DHT22;374;52.568;13.402;2023-12-22T03:02:07;6.20;99.90
782;DHT22;374;52.568;13.402;2023-12-22T03:04:33;6.20;99.90
782;DHT22;374;52.568;13.402;2023-12-22T03:06:59;6.20;99.90
782;DHT22;374;52.568;13.402;2023-12-22T03:09:24;6.20;99.90
782;DHT22;374;52.568;13.402;2023-12-22T03:11:50;6.10;99.90
782;DHT22;374;52.568;13.402;2023-12-22T03:14:19;6.10;99.90
782;DHT22;374;52.568;13.402;2023-12-22T03:16:45;6.20;99.90
782;DHT22;374;52.568;13.402;2023-12-22T03:19:10;6.20;99.90
782;DHT22;374;52.568;13.402;2023-12-22T03:21:36;6.10;99.90
782;DHT22;374;52.568;13.402;2023-12-22T03:24:01;6.10;99.90
782;DHT22;374;52.568;13.402;2023-12-22T03:26:27;6.10;99.90
782;DHT22;374;52.568;13.402;2023-12-22T03:28:53;6.10;99.90
782;DHT22;374;52.568;13.402;2023-12-22T03:31:18;6.00;99.90
782;DHT22;374;52.568;13.402;2023-12-22T03:33:44;6.10;99.90
782;DHT22;374;52.568;13.402;2023-12-22T03:36:09;6.00;99.90
782;DHT22;374;52.568;13.402;2023-12-22T03:38:35;6.10;99.90
782;DHT22;374;52.568;13.402;2023-12-22T03:41:00;6.00;99.90
782;DHT22;374;52.568;13.402;2023-12-22T03:43:26;6.10;99.90
782;DHT22;374;52.568;13.402;2023-12-22T03:45:51;6.10;99.90
782;DHT22;374;52.568;13.402;2023-12-22T03:48:17;6.00;99.90
782;DHT22;374;52.568;13.402;2023-12-22T03:50:42;6.00;99.90
782;DHT22;374;52.568;13.402;2023-12-22T03:53:08;6.00;99.90
782;DHT22;374;52.568;13.402;2023-12-22T03:55:33;6.00;99.90
782;DHT22;374;52.568;13.402;2023-12-22T03:58:01;6.00;99.90
782;DHT22;374;52.568;13.402;2023-12-22T04:00:28;6.00;99.90
782;DHT22;374;52.568;13.402;2023-12-22T04:02:54;6.00;99.90
782;DHT22;374;52.568;13.402;2023-12-22T04:05:19;6.00;99.90
782;DHT22;374;52.568;13.402;2023-12-22T04:07:45;6.00;99.90
782;DHT22;374;52.568;13.402;2023-12-22T04:10:10;5.90;99.90
782;DHT22;374;52.568;13.402;2023-12-22T04:12:36;6.00;99.90
782;DHT22;374;52.568;13.402;2023-12-22T04:15:02;6.00;99.90
782;DHT22;374;52.568;13.402;2023-12-22T04:17:27;6.00;99.90
782;DHT22;374;52.568;13.402;2023-12-22T04:19:53;6.00;99.90
782;DHT22;374;52.568;13.402;2023-12-22T04:22:18;6.00;99.90
782;DHT22;374;52.568;13.402;2023-12-22T04:24:43;5.90;99.90
782;DHT22;374;52.568;13.402;2023-12-22T04:27:09;5.90;99.90
782;DHT22;374;52.568;13.402;2023-12-22T04:29:34;5.90;99.90
782;DHT22;374;52.568;13.402;2023-12-22T04:32:00;5.90;99.90
782;DHT22;374;52.568;13.402;2023-12-22T04:34:25;5.90;99.90
782;DHT22;374;52.568;13.402;2023-12-22T04:36:51;5.80;99.90
782;DHT22;374;52.568;13.402;2023-12-22T04:39:19;5.90;99.90
782;DHT22;374;52.568;13.402;2023-12-22T04:41:44;5.90;99.90
782;DHT22;374;52.568;13.402;2023-12-22T04:44:10;5.90;99.90
782;DHT22;374;52.568;13.402;2023-12-22T04:46:35;5.90;99.90
782;DHT22;374;52.568;13.402;2023-12-22T04:49:00;5.80;99.90
782;DHT22;374;52.568;13.402;2023-12-22T04:51:27;5.90;99.90
782;DHT22;374;52.568;13.402;2023-12-22T04:53:52;5.90;99.90
782;DHT22;374;52.568;13.402;2023-12-22T04:56:18;5.80;99.90
782;DHT22;374;52.568;13.402;2023-12-22T04:58:43;5.80;99.90
782;DHT22;374;52.568;13.402;2023-12-22T05:01:09;5.80;99.90
782;DHT22;374;52.568;13.402;2023-12-22T05:03:34;5.80;99.90
782;DHT22;374;52.568;13.402;2023-12-22T05:06:00;5.70;99.90
782;DHT22;374;52.568;13.402;2023-12-22T05:08:25;5.80;99.90
782;DHT22;374;52.568;13.402;2023-12-22T05:10:51;5.80;99.90
782;DHT22;374;52.568;13.402;2023-12-22T05:13:16;5.70;99.90
782;DHT22;374;52.568;13.402;2023-12-22T05:15:42;5.80;99.90
782;DHT22;374;52.568;13.402;2023-12-22T05:18:08;5.70;99.90
782;DHT22;374;52.568;13.402;2023-12-22T05:20:34;5.80;99.90
782;DHT22;374;52.568;13.402;2023-12-22T05:23:00;5.70;99.90
782;DHT22;374;52.568;13.402;2023-12-22T05:25:25;5.70;99.90
782;DHT22;374;52.568;13.402;2023-12-22T05:27:51;5.70;99.90
782;DHT22;374;52.568;13.402;2023-12-22T05:30:17;5.70;99.90
782;DHT22;374;52.568;13.402;2023-12-22T05:32:43;5.60;99.90
782;DHT22;374;52.568;13.402;2023-12-22T05:35:09;5.60;99.90
782;DHT22;374;52.568;13.402;2023-12-22T05:37:37;5.70;99.90
782;DHT22;374;52.568;13.402;2023-12-22T05:40:03;5.60;99.90
782;DHT22;374;52.568;13.402;2023-12-22T05:42:28;5.60;99.90
782;DHT22;374;52.568;13.402;2023-12-22T05:44:54;5.60;99.90
782;DHT22;374;52.568;13.402;2023-12-22T05:47:19;5.70;99.90
782;DHT22;374;52.568;13.402;2023-12-22T05:49:45;5.60;99.90
782;DHT22;374;52.568;13.402;2023-12-22T05:52:11;5.50;99.90
782;DHT22;374;52.568;13.402;2023-12-22T05:54:37;5.60;99.90
782;DHT22;374;52.568;13.402;2023-12-22T05:57:03;5.60;99.90
782;DHT22;374;52.568;13.402;2023-12-22T05:59:31;5.70;99.90
782;DHT22;374;52.568;13.402;2023-12-22T06:01:58;5.60;99.90
782;DHT22;374;52.568;13.402;2023-12-22T06:04:24;5.60;99.90
782;DHT22;374;52.568;13.402;2023-12-22T06:06:50;5.60;99.90
782;DHT22;374;52.568;13.402;2023-12-22T06:09:15;5.60;99.90
782;DHT22;374;52.568;13.402;2023-12-22T06:11:42;5.60;99.90
782;DHT22;374;52.568;13.402;2023-12-22T06:14:08;5.40;99.90
782;DHT22;374;52.568;13.402;2023-12-22T06:16:33;5.50;99.90
782;DHT22;374;52.568;13.402;2023-12-22T06:18:59;5.40;99.90
782;DHT22;374;52.568;13.402;2023-12-22T06:21:27;5.40;99.90
782;DHT22;374;52.568;13.402;2023-12-22T06:23:52;5.50;99.90
782;DHT22;374;52.568;13.402;2023-12-22T06:26:18;5.40;99.90
782;DHT22;374;52.568;13.402;2023-12-22T06:28:43;5.50;99.90
782;DHT22;374;52.568;13.402;2023-12-22T06:31:16;5.40;99.90
782;DHT22;374;52.568;13.402;2023-12-22T06:33:50;5.40;99.90
782;DHT22;374;52.568;13.402;2023-12-22T06:36:22;5.40;99.90
782;DHT22;374;52.568;13.402;2023-12-22T06:38:49;5.50;99.90
782;DHT22;374;52.568;13.402;2023-12-22T06:41:25;5.40;99.90
782;DHT22;374;52.568;13.402;2023-12-22T06:43:51;5.40;99.90
782;DHT22;374;52.568;13.402;2023-12-22T06:46:20;5.40;99.90
782;DHT22;374;52.568;13.402;2023-12-22T06:48:48;5.40;99.90
782;DHT22;374;52.568;13.402;2023-12-22T06:53:49;5.40;99.90
782;DHT22;374;52.568;13.402;2023-12-22T06:56:20;5.40;99.90
782;DHT22;374;52.568;13.402;2023-12-22T06:58:46;5.40;99.90
782;DHT22;374;52.568;13.402;2023-12-22T07:01:21;5.40;99.90
782;DHT22;374;52.568;13.402;2023-12-22T07:03:47;5.30;99.90
782;DHT22;374;52.568;13.402;2023-12-22T07:06:14;5.30;99.90
782;DHT22;374;52.568;13.402;2023-12-22T07:08:42;5.30;99.90
782;DHT22;374;52.568;13.402;2023-12-22T07:11:11;5.30;99.90
782;DHT22;374;52.568;13.402;2023-12-22T07:13:37;5.10;99.90
782;DHT22;374;52.568;13.402;2023-12-22T07:16:03;5.20;99.90
782;DHT22;374;52.568;13.402;2023-12-22T07:18:32;5.20;99.90
782;DHT22;374;52.568;13.402;2023-12-22T07:21:00;5.20;99.90
782;DHT22;374;52.568;13.402;2023-12-22T07:23:25;5.20;99.90
782;DHT22;374;52.568;13.402;2023-12-22T07:25:51;5.30;99.90
782;DHT22;374;52.568;13.402;2023-12-22T07:28:16;5.20;99.90
782;DHT22;374;52.568;13.402;2023-12-22T07:30:42;5.20;99.90
782;DHT22;374;52.568;13.402;2023-12-22T07:33:07;5.10;99.90
782;DHT22;374;52.568;13.402;2023-12-22T07:35:33;5.10;99.90
782;DHT22;374;52.568;13.402;2023-12-22T07:37:59;5.10;99.90
782;DHT22;374;52.568;13.402;2023-12-22T07:40:25;5.10;99.90
782;DHT22;374;52.568;13.402;2023-12-22T07:42:50;5.10;99.90
782;DHT22;374;52.568;13.402;2023-12-22T07:45:16;5.10;99.90
782;DHT22;374;52.568;13.402;2023-12-22T07:47:41;5.10;99.90
782;DHT22;374;52.568;13.402;2023-12-22T07:50:07;5.10;99.90
782;DHT22;374;52.568;13.402;2023-12-22T07:52:34;5.10;99.90
782;DHT22;374;52.568;13.402;2023-12-22T07:55:04;5.20;99.90
782;DHT22;374;52.568;13.402;2023-12-22T07:57:30;5.10;99.90
782;DHT22;374;52.568;13.402;2023-12-22T07:59:55;5.20;99.90
782;DHT22;374;52.568;13.402;2023-12-22T08:02:21;5.20;99.90
782;DHT22;374;52.568;13.402;2023-12-22T08:04:48;5.20;99.90
782;DHT22;374;52.568;13.402;2023-12-22T08:07:14;5.20;99.90
782;DHT22;374;52.568;13.402;2023-12-22T08:09:39;5.20;99.90
782;DHT22;374;52.568;13.402;2023-12-22T08:12:05;5.10;99.90
782;DHT22;374;52.568;13.402;2023-12-22T08:14:31;5.20;99.90
782;DHT22;374;52.568;13.402;2023-12-22T08:16:56;5.10;99.90
782;DHT22;374;52.568;13.402;2023-12-22T08:19:22;5.10;99.90
782;DHT22;374;52.568;13.402;2023-12-22T08:21:47;5.10;99.90
782;DHT22;374;52.568;13.402;2023-12-22T08:24:13;5.20;99.90
782;DHT22;374;52.568;13.402;2023-12-22T08:26:41;5.10;99.90
782;DHT22;374;52.568;13.402;2023-12-22T08:29:07;5.10;99.90
782;DHT22;374;52.568;13.402;2023-12-22T08:31:33;5.00;99.90
782;DHT22;374;52.568;13.402;2023-12-22T08:33:59;5.00;99.90
782;DHT22;374;52.568;13.402;2023-12-22T08:36:24;5.00;99.90
782;DHT22;374;52.568;13.402;2023-12-22T08:38:50;5.10;99.90
782;DHT22;374;52.568;13.402;2023-12-22T08:41:15;5.00;99.90
782;DHT22;374;52.568;13.402;2023-12-22T08:43:41;5.00;99.90
782;DHT22;374;52.568;13.402;2023-12-22T08:46:07;5.00;99.90
782;DHT22;374;52.568;13.402;2023-12-22T08:48:35;5.00;99.90
782;DHT22;374;52.568;13.402;2023-12-22T08:51:00;5.00;99.90
782;DHT22;374;52.568;13.402;2023-12-22T08:53:26;5.00;99.90
782;DHT22;374;52.568;13.402;2023-12-22T08:55:51;5.00;99.90
782;DHT22;374;52.568;13.402;2023-12-22T08:58:17;5.00;99.90
782;DHT22;374;52.568;13.402;2023-12-22T09:00:43;5.00;99.90
782;DHT22;374;52.568;13.402;2023-12-22T09:03:08;5.10;99.90
782;DHT22;374;52.568;13.402;2023-12-22T09:05:34;5.00;99.90
782;DHT22;374;52.568;13.402;2023-12-22T09:07:59;5.00;99.90
782;DHT22;374;52.568;13.402;2023-12-22T09:10:24;5.10;99.90
782;DHT22;374;52.568;13.402;2023-12-22T09:12:50;5.00;99.90
782;DHT22;374;52.568;13.402;2023-12-22T09:15:16;5.00;99.90
782;DHT22;374;52.568;13.402;2023-12-22T09:17:44;5.10;99.90
782;DHT22;374;52.568;13.402;2023-12-22T09:20:10;5.10;99.90
782;DHT22;374;52.568;13.402;2023-12-22T09:22:36;5.00;99.90
782;DHT22;374;52.568;13.402;2023-12-22T09:25:01;5.00;99.90
782;DHT22;374;52.568;13.402;2023-12-22T09:27:27;5.00;99.90
782;DHT22;374;52.568;13.402;2023-12-22T09:29:55;5.00;99.90
782;DHT22;374;52.568;13.402;2023-12-22T09:32:21;5.00;99.90
782;DHT22;374;52.568;13.402;2023-12-22T09:34:46;5.00;99.90
782;DHT22;374;52.568;13.402;2023-12-22T09:37:11;5.00;99.90
782;DHT22;374;52.568;13.402;2023-12-22T09:39:37;5.00;99.90
782;DHT22;374;52.568;13.402;2023-12-22T09:42:03;5.00;99.90
782;DHT22;374;52.568;13.402;2023-12-22T09:44:32;5.10;99.90
782;DHT22;374;52.568;13.402;2023-12-22T09:47:04;5.00;99.90
782;DHT22;374;52.568;13.402;2023-12-22T09:49:32;5.10;99.90
782;DHT22;374;52.568;13.402;2023-12-22T09:51:58;5.00;99.90
782;DHT22;374;52.568;13.402;2023-12-22T09:54:24;5.00;99.90
782;DHT22;374;52.568;13.402;2023-12-22T09:56:51;5.10;99.90
782;DHT22;374;52.568;13.402;2023-12-22T09:59:17;5.00;99.90
782;DHT22;374;52.568;13.402;2023-12-22T10:01:52;5.10;99.90
782;DHT22;374;52.568;13.402;2023-12-22T10:04:19;5.00;99.90
782;DHT22;374;52.568;13.402;2023-12-22T10:06:47;5.00;99.90
782;DHT22;374;52.568;13.402;2023-12-22T10:09:16;5.00;99.90
782;DHT22;374;52.568;13.402;2023-12-22T10:11:44;5.00;99.90
782;DHT22;374;52.568;13.402;2023-12-22T10:14:10;5.00;99.90
782;DHT22;374;52.568;13.402;2023-12-22T10:16:36;5.00;99.90
782;DHT22;374;52.568;13.402;2023-12-22T10:19:03;5.10;99.90
782;DHT22;374;52.568;13.402;2023-12-22T10:21:28;5.10;99.90
782;DHT22;374;52.568;13.402;2023-12-22T10:23:56;5.10;99.90
782;DHT22;374;52.568;13.402;2023-12-22T10:26:22;5.00;99.90
782;DHT22;374;52.568;13.402;2023-12-22T10:28:47;5.10;99.90
782;DHT22;374;52.568;13.402;2023-12-22T10:31:14;5.10;99.90
782;DHT22;374;52.568;13.402;2023-12-22T10:33:40;5.10;99.90
782;DHT22;374;52.568;13.402;2023-12-22T10:36:07;5.00;99.90
782;DHT22;374;52.568;13.402;2023-12-22T10:38:34;5.10;99.90
782;DHT22;374;52.568;13.402;2023-12-22T10:41:03;5.00;99.90
782;DHT22;374;52.568;13.402;2023-12-22T10:43:30;5.00;99.90
782;DHT22;374;52.568;13.402;2023-12-22T10:45:55;5.00;99.90
782;DHT22;374;52.568;13.402;2023-12-22T10:48:22;5.00;99.90
782;DHT22;374;52.568;13.402;2023-12-22T10:50:48;5.00;99.90
782;DHT22;374;52.568;13.402;2023-12-22T10:53:14;5.10;99.90
782;DHT22;374;52.568;13.402;2023-12-22T10:55:40;5.00;99.90
782;DHT22;374;52.568;13.402;2023-12-22T10:58:08;5.00;99.90
782;DHT22;374;52.568;13.402;2023-12-22T11:00:37;5.00;99.90
782;DHT22;374;52.568;13.402;2023-12-22T11:03:06;5.00;99.90
782;DHT22;374;52.568;13.402;2023-12-22T11:05:33;5.00;99.90
782;DHT22;374;52.568;13.402;2023-12-22T11:08:00;5.00;99.90
782;DHT22;374;52.568;13.402;2023-12-22T11:10:31;5.00;99.90
782;DHT22;374;52.568;13.402;2023-12-22T11:12:57;5.00;99.90
782;DHT22;374;52.568;13.402;2023-12-22T11:15:24;5.00;99.90
782;DHT22;374;52.568;13.402;2023-12-22T11:17:52;5.00;99.90
782;DHT22;374;52.568;13.402;2023-12-22T11:20:23;5.00;99.90
782;DHT22;374;52.568;13.402;2023-12-22T11:22:49;5.00;99.90
782;DHT22;374;52.568;13.402;2023-12-22T11:25:17;5.00;99.90
782;DHT22;374;52.568;13.402;2023-12-22T11:27:43;5.00;99.90
782;DHT22;374;52.568;13.402;2023-12-22T11:30:11;5.00;99.90
782;DHT22;374;52.568;13.402;2023-12-22T11:32:39;5.00;99.90
782;DHT22;374;52.568;13.402;2023-12-22T11:35:05;5.00;99.90
782;DHT22;374;52.568;13.402;2023-12-22T11:37:35;5.00;99.90
782;DHT22;374;52.568;13.402;2023-12-22T11:40:01;5.00;99.90
782;DHT22;374;52.568;13.402;2023-12-22T11:42:33;5.00;99.90
782;DHT22;374;52.568;13.402;2023-12-22T11:45:02;5.00;99.90
782;DHT22;374;52.568;13.402;2023-12-22T11:47:28;5.00;99.90
782;DHT22;374;52.568;13.402;2023-12-22T11:49:53;5.00;99.90
782;DHT22;374;52.568;13.402;2023-12-22T11:52:26;5.00;99.90
782;DHT22;374;52.568;13.402;2023-12-22T11:54:54;5.00;99.90
782;DHT22;374;52.568;13.402;2023-12-22T11:57:37;5.00;99.90
782;DHT22;374;52.568;13.402;2023-12-22T12:02:54;5.00;99.90
782;DHT22;374;52.568;13.402;2023-12-22T12:05:20;5.00;99.90
782;DHT22;374;52.568;13.402;2023-12-22T12:07:48;5.00;99.90
782;DHT22;374;52.568;13.402;2023-12-22T12:13:13;4.90;99.90
782;DHT22;374;52.568;13.402;2023-12-22T12:15:41;4.90;99.90
782;DHT22;374;52.568;13.402;2023-12-22T12:18:07;5.00;99.90
782;DHT22;374;52.568;13.402;2023-12-22T12:20:34;5.00;99.90
782;DHT22;374;52.568;13.402;2023-12-22T12:23:01;5.00;99.90
782;DHT22;374;52.568;13.402;2023-12-22T12:25:32;4.90;99.90
782;DHT22;374;52.568;13.402;2023-12-22T12:28:05;5.00;99.90
782;DHT22;374;52.568;13.402;2023-12-22T12:30:32;5.00;99.90
782;DHT22;374;52.568;13.402;2023-12-22T12:33:11;5.00;99.90
782;DHT22;374;52.568;13.402;2023-12-22T12:35:41;5.00;99.90
782;DHT22;374;52.568;13.402;2023-12-22T12:38:09;5.00;99.90
782;DHT22;374;52.568;13.402;2023-12-22T12:40:37;5.00;99.90
782;DHT22;374;52.568;13.402;2023-12-22T12:43:04;5.00;99.90
782;DHT22;374;52.568;13.402;2023-12-22T12:45:30;5.00;99.90
782;DHT22;374;52.568;13.402;2023-12-22T12:48:00;4.90;99.90
782;DHT22;374;52.568;13.402;2023-12-22T12:50:27;5.00;99.90
782;DHT22;374;52.568;13.402;2023-12-22T12:52:57;5.00;99.90
782;DHT22;374;52.568;13.402;2023-12-22T12:55:23;5.00;99.90
782;DHT22;374;52.568;13.402;2023-12-22T12:57:53;4.90;99.90
782;DHT22;374;52.568;13.402;2023-12-22T13:00:26;5.00;99.90
782;DHT22;374;52.568;13.402;2023-12-22T13:02:59;4.90;99.90
782;DHT22;374;52.568;13.402;2023-12-22T13:05:25;5.00;99.90
782;DHT22;374;52.568;13.402;2023-12-22T13:07:51;5.00;99.90
782;DHT22;374;52.568;13.402;2023-12-22T13:10:24;5.00;99.90
782;DHT22;374;52.568;13.402;2023-12-22T13:12:57;5.00;99.90
782;DHT22;374;52.568;13.402;2023-12-22T13:15:22;5.00;99.90
782;DHT22;374;52.568;13.402;2023-12-22T13:17:51;5.00;99.90
782;DHT22;374;52.568;13.402;2023-12-22T13:20:20;5.00;99.90
782;DHT22;374;52.568;13.402;2023-12-22T13:22:46;4.90;99.90
782;DHT22;374;52.568;13.402;2023-12-22T13:25:12;5.00;99.90
782;DHT22;374;52.568;13.402;2023-12-22T13:27:47;5.00;99.90
782;DHT22;374;52.568;13.402;2023-12-22T13:30:14;4.90;99.90
782;DHT22;374;52.568;13.402;2023-12-22T13:32:40;5.00;99.90
782;DHT22;374;52.568;13.402;2023-12-22T13:35:06;4.90;99.90
782;DHT22;374;52.568;13.402;2023-12-22T13:37:32;4.90;99.90
782;DHT22;374;52.568;13.402;2023-12-22T13:39:58;5.00;99.90
782;DHT22;374;52.568;13.402;2023-12-22T13:42:26;4.90;99.90
782;DHT22;374;52.568;13.402;2023-12-22T13:44:55;4.90;99.90
782;DHT22;374;52.568;13.402;2023-12-22T13:47:21;4.90;99.90
782;DHT22;374;52.568;13.402;2023-12-22T13:49:48;4.90;99.90
782;DHT22;374;52.568;13.402;2023-12-22T13:52:32;4.90;99.90
782;DHT22;374;52.568;13.402;2023-12-22T13:55:00;5.00;99.90
782;DHT22;374;52.568;13.402;2023-12-22T13:57:27;4.90;99.90
782;DHT22;374;52.568;13.402;2023-12-22T13:59:53;5.00;99.90
782;DHT22;374;52.568;13.402;2023-12-22T14:02:22;4.90;99.90
782;DHT22;374;52.568;13.402;2023-12-22T14:04:49;4.90;99.90
782;DHT22;374;52.568;13.402;2023-12-22T14:07:15;4.90;99.90
782;DHT22;374;52.568;13.402;2023-12-22T14:09:40;4.90;99.90
782;DHT22;374;52.568;13.402;2023-12-22T14:12:06;5.00;99.90
782;DHT22;374;52.568;13.402;2023-12-22T14:14:31;5.00;99.90
782;DHT22;374;52.568;13.402;2023-12-22T14:16:57;4.90;99.90
782;DHT22;374;52.568;13.402;2023-12-22T14:19:22;5.00;99.90
782;DHT22;374;52.568;13.402;2023-12-22T14:21:48;5.00;99.90
782;DHT22;374;52.568;13.402;2023-12-22T14:24:13;5.00;99.90
782;DHT22;374;52.568;13.402;2023-12-22T14:26:55;5.00;99.90
782;DHT22;374;52.568;13.402;2023-12-22T14:29:20;4.90;99.90
782;DHT22;374;52.568;13.402;2023-12-22T14:31:48;4.90;99.90
782;DHT22;374;52.568;13.402;2023-12-22T14:34:14;4.90;99.90
782;DHT22;374;52.568;13.402;2023-12-22T14:36:39;4.90;99.90
782;DHT22;374;52.568;13.402;2023-12-22T14:39:05;4.90;99.90
782;DHT22;374;52.568;13.402;2023-12-22T14:41:30;4.90;99.90
782;DHT22;374;52.568;13.402;2023-12-22T14:43:56;4.90;99.90
782;DHT22;374;52.568;13.402;2023-12-22T14:46:21;4.90;99.90
782;DHT22;374;52.568;13.402;2023-12-22T14:48:49;4.90;99.90
782;DHT22;374;52.568;13.402;2023-12-22T14:51:15;4.90;99.90
782;DHT22;374;52.568;13.402;2023-12-22T14:53:41;4.90;99.90
782;DHT22;374;52.568;13.402;2023-12-22T14:56:06;4.90;99.90
782;DHT22;374;52.568;13.402;2023-12-22T14:58:32;4.90;99.90
782;DHT22;374;52.568;13.402;2023-12-22T15:00:57;4.90;99.90
782;DHT22;374;52.568;13.402;2023-12-22T15:03:23;4.80;99.90
782;DHT22;374;52.568;13.402;2023-12-22T15:05:48;4.80;99.90
782;DHT22;374;52.568;13.402;2023-12-22T15:08:14;4.80;99.90
782;DHT22;374;52.568;13.402;2023-12-22T15:10:39;4.90;99.90
782;DHT22;374;52.568;13.402;2023-12-22T15:13:05;4.80;99.90
782;DHT22;374;52.568;13.402;2023-12-22T15:15:30;4.80;99.90
782;DHT22;374;52.568;13.402;2023-12-22T15:17:55;4.90;99.90
782;DHT22;374;52.568;13.402;2023-12-22T15:20:21;4.90;99.90
782;DHT22;374;52.568;13.402;2023-12-22T15:22:46;4.80;99.90
782;DHT22;374;52.568;13.402;2023-12-22T15:25:12;4.80;99.90
782;DHT22;374;52.568;13.402;2023-12-22T15:27:37;4.90;99.90
782;DHT22;374;52.568;13.402;2023-12-22T15:30:05;4.90;99.90
782;DHT22;374;52.568;13.402;2023-12-22T15:32:30;4.80;99.90
782;DHT22;374;52.568;13.402;2023-12-22T15:34:56;4.90;99.90
782;DHT22;374;52.568;13.402;2023-12-22T15:37:21;4.80;99.90
782;DHT22;374;52.568;13.402;2023-12-22T15:39:46;4.90;99.90
782;DHT22;374;52.568;13.402;2023-12-22T15:42:12;4.80;99.90
782;DHT22;374;52.568;13.402;2023-12-22T15:44:41;4.80;99.90
782;DHT22;374;52.568;13.402;2023-12-22T15:47:07;4.80;99.90
782;DHT22;374;52.568;13.402;2023-12-22T15:49:39;4.80;99.90
782;DHT22;374;52.568;13.402;2023-12-22T15:52:05;4.80;99.90
782;DHT22;374;52.568;13.402;2023-12-22T15:54:30;4.80;99.90
782;DHT22;374;52.568;13.402;2023-12-22T15:56:56;4.80;99.90
782;DHT22;374;52.568;13.402;2023-12-22T15:59:21;4.80;99.90
782;DHT22;374;52.568;13.402;2023-12-22T16:01:50;4.80;99.90
782;DHT22;374;52.568;13.402;2023-12-22T16:04:16;4.80;99.90
782;DHT22;374;52.568;13.402;2023-12-22T16:06:41;4.80;99.90
782;DHT22;374;52.568;13.402;2023-12-22T16:09:07;4.80;99.90
782;DHT22;374;52.568;13.402;2023-12-22T16:11:32;4.80;99.90
782;DHT22;374;52.568;13.402;2023-12-22T16:13:58;4.80;99.90
782;DHT22;374;52.568;13.402;2023-12-22T16:16:23;4.80;99.90
782;DHT22;374;52.568;13.402;2023-12-22T16:18:49;4.80;99.90
782;DHT22;374;52.568;13.402;2023-12-22T16:21:14;4.80;99.90
782;DHT22;374;52.568;13.402;2023-12-22T16:23:40;4.80;99.90
782;DHT22;374;52.568;13.402;2023-12-22T16:26:05;4.90;99.90
782;DHT22;374;52.568;13.402;2023-12-22T16:28:33;4.80;99.90
782;DHT22;374;52.568;13.402;2023-12-22T16:30:58;4.80;99.90
782;DHT22;374;52.568;13.402;2023-12-22T16:33:25;4.80;99.90
782;DHT22;374;52.568;13.402;2023-12-22T16:35:55;4.80;99.90
782;DHT22;374;52.568;13.402;2023-12-22T16:38:21;4.80;99.90